Terminal Aerodrome Forecast
Issued by NWS Sterling, VA

Current Version | Previous Version | Graphics & Text | Print | Product List | Glossary On
Versions: 1 2 3 4 5 6 7 8 9 10 11 12 13 14 15 16 17 18 19 20 21 22 23 24 25 26 27 28
000
FTUS41 KLWX 221959 AAB
TAFIAD
TAF AMD
KIAD 221959Z 2220/2324 27010G20KT 4SM -SHRA VCTS SCT030 BKN050CB
     FM222100 23008KT 5SM -SHRA SCT030 BKN050
     FM230000 22006KT P6SM BKN070
     FM230800 25004KT 3SM BR BKN070
     FM231100 29004KT P6SM SCT250
     FM231300 30009KT P6SM SCT250
     FM231700 33010KT P6SM SCT030 SCT250=

USA.gov is the U.S. government's official web portal to all federal, state and local government web resources and services.